Time,TemperatureF,DewpointF,PressureIn,WindDirection,WindDirectionDegrees,WindSpeedMPH,WindSpeedGustMPH,Humidity,HourlyPrecipIn,Conditions,Clouds,dailyrainin,SoftwareType,DateUTC
2013-04-30 00:02:00,62.8,61.9,29.99,WSW,242,0.0,0.0,97,0.00,,,1.05,meteohub,2013-04-30 04:02:00,
2013-04-30 00:07:00,62.6,61.7,29.99,WSW,242,0.0,0.0,97,0.00,,,1.05,meteohub,2013-04-30 04:07:00,
2013-04-30 00:12:00,62.4,61.5,29.99,WSW,242,0.0,0.0,97,0.00,,,1.05,meteohub,2013-04-30 04:12:00,
2013-04-30 00:17:00,62.2,61.3,29.99,WSW,242,0.0,0.0,97,0.00,,,1.05,meteohub,2013-04-30 04:17:00,
2013-04-30 00:23:00,62.1,61.2,29.99,WSW,242,0.0,0.0,97,0.00,,,1.05,meteohub,2013-04-30 04:23:00,
2013-04-30 00:28:00,62.1,61.2,29.99,WSW,242,0.0,0.0,97,0.00,,,1.05,meteohub,2013-04-30 04:28:00,
2013-04-30 00:32:00,61.9,61.0,29.99,WSW,242,0.0,0.0,97,0.00,,,1.05,meteohub,2013-04-30 04:32:00,
2013-04-30 00:38:00,61.7,60.8,29.99,WSW,242,0.0,0.0,97,0.00,,,0.00,meteohub,2013-04-30 04:38:00,
2013-04-30 00:43:00,61.5,60.6,29.99,WSW,242,0.0,0.0,97,0.00,,,0.00,meteohub,2013-04-30 04:43:00,
2013-04-30 00:48:00,61.3,60.4,29.99,WSW,242,0.0,0.0,97,0.00,,,0.00,meteohub,2013-04-30 04:48:00,
2013-04-30 00:53:00,61.3,60.4,29.98,WSW,242,0.0,0.0,97,0.00,,,0.00,meteohub,2013-04-30 04:53:00,
2013-04-30 00:58:00,61.2,60.3,29.99,WSW,242,0.0,0.0,97,0.00,,,0.00,meteohub,2013-04-30 04:58:00,
2013-04-30 01:02:00,61.0,60.1,29.99,WSW,242,0.0,0.0,97,0.00,,,0.00,meteohub,2013-04-30 05:02:00,
2013-04-30 01:08:00,60.6,59.7,29.99,WSW,242,0.0,0.0,97,0.00,,,0.00,meteohub,2013-04-30 05:08:00,
2013-04-30 01:12:00,60.4,59.5,29.99,WSW,242,0.0,0.0,97,0.00,,,0.00,meteohub,2013-04-30 05:12:00,
2013-04-30 01:17:00,60.4,59.5,29.99,WSW,242,0.0,0.0,97,0.00,,,0.00,meteohub,2013-04-30 05:17:00,
2013-04-30 01:22:00,60.4,59.5,29.99,WSW,242,0.0,0.0,97,0.00,,,0.00,meteohub,2013-04-30 05:22:00,
2013-04-30 01:27:00,60.6,59.7,29.98,WSW,242,0.0,0.0,97,0.00,,,0.00,meteohub,2013-04-30 05:27:00,
2013-04-30 01:32:00,61.0,60.4,29.98,WSW,242,0.0,0.0,98,0.00,,,0.00,meteohub,2013-04-30 05:32:00,
2013-04-30 01:38:00,61.0,60.4,29.98,WSW,242,0.0,0.0,98,0.00,,,0.00,meteohub,2013-04-30 05:38:00,
2013-04-30 01:43:00,61.0,60.4,29.97,WSW,242,0.0,0.0,98,0.00,,,0.00,meteohub,2013-04-30 05:43:00,
2013-04-30 01:48:00,60.8,59.9,29.97,WSW,242,0.0,0.0,97,0.00,,,0.00,meteohub,2013-04-30 05:48:00,
2013-04-30 01:53:00,60.6,59.7,29.97,WSW,242,0.0,0.0,97,0.00,,,0.00,meteohub,2013-04-30 05:53:00,
2013-04-30 01:58:00,60.4,59.5,29.97,WSW,242,0.0,0.0,97,0.00,,,0.00,meteohub,2013-04-30 05:58:00,
2013-04-30 02:03:00,60.3,59.4,29.97,WSW,242,0.0,0.0,97,0.00,,,0.00,meteohub,2013-04-30 06:03:00,
2013-04-30 02:08:00,60.1,59.2,29.98,WSW,242,0.0,0.0,97,0.00,,,0.00,meteohub,2013-04-30 06:08:00,
2013-04-30 02:13:00,60.1,59.2,29.97,WSW,242,0.0,0.0,97,0.00,,,0.00,meteohub,2013-04-30 06:13:00,
2013-04-30 02:18:00,59.9,59.0,29.97,WSW,242,0.0,0.0,97,0.00,,,0.00,meteohub,2013-04-30 06:18:00,
2013-04-30 02:23:00,59.7,58.8,29.97,WSW,242,0.0,0.0,97,0.00,,,0.00,meteohub,2013-04-30 06:23:00,
2013-04-30 02:28:00,59.5,58.6,29.96,WSW,242,0.0,0.0,97,0.00,,,0.00,meteohub,2013-04-30 06:28:00,
2013-04-30 02:33:00,59.5,58.6,29.96,WSW,242,0.0,0.0,97,0.00,,,0.00,meteohub,2013-04-30 06:33:00,
2013-04-30 02:38:00,59.4,58.5,29.96,WSW,242,0.0,0.0,97,0.00,,,0.00,meteohub,2013-04-30 06:38:00,
2013-04-30 02:43:00,59.0,58.1,29.96,WSW,242,0.0,0.0,97,0.00,,,0.00,meteohub,2013-04-30 06:43:00,
2013-04-30 02:48:00,59.0,58.1,29.96,WSW,242,0.0,0.0,97,0.00,,,0.00,meteohub,2013-04-30 06:48:00,
2013-04-30 02:53:00,59.0,58.5,29.96,WSW,242,0.0,0.0,98,0.00,,,0.00,meteohub,2013-04-30 06:53:00,
2013-04-30 02:58:00,58.8,58.3,29.96,WSW,242,0.0,0.0,98,0.00,,,0.00,meteohub,2013-04-30 06:58:00,
2013-04-30 03:03:00,58.6,57.7,29.96,WSW,242,0.0,0.0,97,0.00,,,0.00,meteohub,2013-04-30 07:03:00,
2013-04-30 03:08:00,58.5,57.6,29.96,WSW,242,0.0,0.0,97,0.00,,,0.00,meteohub,2013-04-30 07:08:00,
2013-04-30 03:13:00,58.5,57.6,29.96,WSW,242,0.0,0.0,97,0.00,,,0.00,meteohub,2013-04-30 07:13:00,
2013-04-30 03:18:00,58.5,57.9,29.96,WSW,242,0.0,0.0,98,0.00,,,0.00,meteohub,2013-04-30 07:18:00,
2013-04-30 03:23:00,58.3,57.7,29.96,WSW,242,0.0,0.0,98,0.00,,,0.00,meteohub,2013-04-30 07:23:00,
2013-04-30 03:28:00,58.3,57.4,29.96,WSW,242,0.0,0.0,97,0.00,,,0.00,meteohub,2013-04-30 07:28:00,
2013-04-30 03:33:00,58.1,57.2,29.97,WSW,242,0.0,0.0,97,0.00,,,0.00,meteohub,2013-04-30 07:33:00,
2013-04-30 03:38:00,58.1,57.6,29.97,WSW,242,0.0,0.0,98,0.00,,,0.00,meteohub,2013-04-30 07:38:00,
2013-04-30 03:43:00,58.1,57.6,29.97,WSW,242,0.0,0.0,98,0.00,,,0.00,meteohub,2013-04-30 07:43:00,
2013-04-30 03:48:00,58.3,57.7,29.97,WSW,242,0.0,0.0,98,0.00,,,0.00,meteohub,2013-04-30 07:48:00,
2013-04-30 03:53:00,58.1,57.6,29.97,WSW,242,0.0,0.0,98,0.00,,,0.00,meteohub,2013-04-30 07:53:00,
2013-04-30 03:58:00,57.9,57.4,29.97,WSW,242,0.0,0.0,98,0.00,,,0.00,meteohub,2013-04-30 07:58:00,
2013-04-30 04:03:00,57.9,57.4,29.97,WSW,242,0.0,0.0,98,0.00,,,0.00,meteohub,2013-04-30 08:03:00,
2013-04-30 04:08:00,57.9,57.4,29.98,WSW,242,0.0,0.0,98,0.00,,,0.00,meteohub,2013-04-30 08:08:00,
2013-04-30 04:13:00,57.9,57.4,29.97,WSW,242,0.0,0.0,98,0.00,,,0.00,meteohub,2013-04-30 08:13:00,
2013-04-30 04:18:00,57.7,57.2,29.97,WSW,242,0.0,0.0,98,0.00,,,0.00,meteohub,2013-04-30 08:18:00,
2013-04-30 04:23:00,57.7,57.2,29.97,WSW,242,0.0,0.0,98,0.00,,,0.00,meteohub,2013-04-30 08:23:00,
2013-04-30 04:28:00,57.7,57.2,29.98,WSW,242,0.0,0.0,98,0.00,,,0.00,meteohub,2013-04-30 08:28:00,
2013-04-30 04:33:00,57.7,57.2,29.98,WSW,242,0.0,0.0,98,0.00,,,0.00,meteohub,2013-04-30 08:33:00,
2013-04-30 04:38:00,57.7,57.2,29.98,WSW,242,0.0,0.0,98,0.00,,,0.00,meteohub,2013-04-30 08:38:00,
2013-04-30 04:43:00,57.9,57.4,29.98,WSW,242,0.0,0.0,98,0.00,,,0.00,meteohub,2013-04-30 08:43:00,
2013-04-30 04:48:00,58.1,57.6,29.98,WSW,242,0.0,0.0,98,0.00,,,0.00,meteohub,2013-04-30 08:48:00,
2013-04-30 04:53:00,58.1,57.6,29.98,WSW,242,0.0,0.0,98,0.00,,,0.00,meteohub,2013-04-30 08:53:00,
2013-04-30 04:58:00,58.3,57.7,29.98,WSW,242,0.0,0.0,98,0.00,,,0.00,meteohub,2013-04-30 08:58:00,
2013-04-30 05:03:00,58.5,57.9,29.99,WSW,242,0.0,0.0,98,0.00,,,0.00,meteohub,2013-04-30 09:03:00,
2013-04-30 05:08:00,58.5,57.9,29.99,WSW,242,0.0,0.0,98,0.00,,,0.00,meteohub,2013-04-30 09:08:00,
2013-04-30 05:13:00,58.6,58.1,29.99,WSW,242,0.0,0.0,98,0.00,,,0.00,meteohub,2013-04-30 09:13:00,
2013-04-30 05:18:00,58.6,58.1,29.99,WSW,242,0.0,0.0,98,0.00,,,0.00,meteohub,2013-04-30 09:18:00,
2013-04-30 05:23:00,58.8,58.3,29.99,WSW,242,0.0,0.0,98,0.00,,,0.00,meteohub,2013-04-30 09:23:00,
2013-04-30 05:28:00,58.8,58.3,29.99,WSW,242,0.0,0.0,98,0.00,,,0.00,meteohub,2013-04-30 09:28:00,
2013-04-30 05:33:00,58.8,58.3,29.99,WSW,242,0.0,0.0,98,0.00,,,0.00,meteohub,2013-04-30 09:33:00,
2013-04-30 05:38:00,58.8,58.3,29.99,WSW,242,0.0,0.0,98,0.00,,,0.00,meteohub,2013-04-30 09:38:00,
2013-04-30 05:43:00,59.2,58.6,29.99,WSW,242,0.0,0.0,98,0.00,,,0.00,meteohub,2013-04-30 09:43:00,
2013-04-30 05:48:00,59.2,58.6,29.99,WSW,242,0.0,0.0,98,0.00,,,0.00,meteohub,2013-04-30 09:48:00,
2013-04-30 05:53:00,59.4,58.8,29.99,WSW,242,0.0,0.0,98,0.00,,,0.00,meteohub,2013-04-30 09:53:00,
2013-04-30 05:58:00,59.5,59.0,29.99,WSW,242,0.0,0.0,98,0.00,,,0.00,meteohub,2013-04-30 09:58:00,
2013-04-30 06:03:00,59.5,59.0,30.00,WSW,242,0.0,0.0,98,0.00,,,0.00,meteohub,2013-04-30 10:03:00,
2013-04-30 06:08:00,59.5,59.0,30.00,WSW,242,0.0,0.0,98,0.00,,,0.00,meteohub,2013-04-30 10:08:00,
2013-04-30 06:13:00,59.7,59.2,30.00,WSW,242,0.0,0.0,98,0.00,,,0.00,meteohub,2013-04-30 10:13:00,
2013-04-30 06:18:00,59.7,59.2,30.01,WSW,242,0.0,0.0,98,0.00,,,0.00,meteohub,2013-04-30 10:18:00,
2013-04-30 06:23:00,59.7,59.2,30.01,WSW,242,0.0,0.0,98,0.00,,,0.00,meteohub,2013-04-30 10:23:00,
2013-04-30 06:28:00,59.9,59.4,30.01,WSW,242,0.0,0.0,98,0.00,,,0.00,meteohub,2013-04-30 10:28:00,
2013-04-30 06:33:00,60.1,59.5,30.01,WSW,242,0.0,0.0,98,0.00,,,0.00,meteohub,2013-04-30 10:33:00,
2013-04-30 06:38:00,60.1,59.5,30.01,WSW,242,0.0,0.0,98,0.00,,,0.00,meteohub,2013-04-30 10:38:00,
2013-04-30 06:43:00,60.1,59.5,30.01,WSW,242,0.0,0.0,98,0.00,,,0.00,meteohub,2013-04-30 10:43:00,
2013-04-30 06:48:00,60.3,59.7,30.01,WSW,242,0.0,0.0,98,0.00,,,0.00,meteohub,2013-04-30 10:48:00,
2013-04-30 06:53:00,60.3,59.7,30.02,WSW,242,0.0,0.0,98,0.00,,,0.00,meteohub,2013-04-30 10:53:00,
2013-04-30 06:58:00,60.3,59.7,30.01,WSW,242,1.0,0.0,98,0.00,,,0.00,meteohub,2013-04-30 10:58:00,
2013-04-30 07:03:00,60.4,60.1,30.01,WSW,242,0.0,0.0,99,0.00,,,0.00,meteohub,2013-04-30 11:03:00,
2013-04-30 07:08:00,60.4,60.1,30.02,WSW,242,0.0,0.0,99,0.00,,,0.00,meteohub,2013-04-30 11:08:00,
2013-04-30 07:13:00,60.6,60.3,30.02,WSW,242,0.0,0.0,99,0.00,,,0.00,meteohub,2013-04-30 11:13:00,
2013-04-30 07:18:00,60.6,60.3,30.02,WSW,242,0.0,0.0,99,0.00,,,0.00,meteohub,2013-04-30 11:18:00,
2013-04-30 07:23:00,60.8,60.3,30.02,WSW,242,0.0,0.0,98,0.00,,,0.00,meteohub,2013-04-30 11:23:00,
2013-04-30 07:28:00,61.0,60.4,30.03,East,91,0.0,0.0,98,0.00,,,0.00,meteohub,2013-04-30 11:28:00,
2013-04-30 07:33:00,61.0,60.4,30.03,East,91,0.0,0.0,98,0.00,,,0.00,meteohub,2013-04-30 11:33:00,
2013-04-30 07:38:00,61.2,60.8,30.03,East,91,0.0,4.0,99,0.00,,,0.00,meteohub,2013-04-30 11:38:00,
2013-04-30 07:43:00,61.2,60.8,30.03,East,91,0.0,4.0,99,0.00,,,0.00,meteohub,2013-04-30 11:43:00,
2013-04-30 07:48:00,61.3,61.0,30.03,East,94,0.0,4.0,99,0.00,,,0.00,meteohub,2013-04-30 11:48:00,
2013-04-30 07:53:00,61.3,60.8,30.03,East,94,0.0,4.0,98,0.00,,,0.00,meteohub,2013-04-30 11:53:00,
2013-04-30 07:58:00,61.5,61.2,30.03,East,94,0.0,4.0,99,0.00,,,0.00,meteohub,2013-04-30 11:58:00,
2013-04-30 08:03:00,61.7,61.3,30.03,East,94,0.0,4.0,99,0.00,,,0.00,meteohub,2013-04-30 12:03:00,
2013-04-30 08:08:00,61.9,61.5,30.03,East,94,0.0,4.0,99,0.00,,,0.00,meteohub,2013-04-30 12:08:00,
2013-04-30 08:13:00,62.1,61.7,30.03,East,94,0.0,4.0,99,0.00,,,0.00,meteohub,2013-04-30 12:13:00,
2013-04-30 08:18:00,62.1,61.7,30.04,East,95,0.0,4.0,99,0.00,,,0.00,meteohub,2013-04-30 12:18:00,
2013-04-30 08:23:00,62.2,61.9,30.04,East,88,0.0,4.0,99,0.00,,,0.00,meteohub,2013-04-30 12:23:00,
2013-04-30 08:28:00,62.2,61.9,30.03,ESE,109,0.0,4.0,99,0.00,,,0.00,meteohub,2013-04-30 12:28:00,
2013-04-30 08:33:00,62.4,62.1,30.04,ESE,109,0.0,0.0,99,0.00,,,0.00,meteohub,2013-04-30 12:33:00,
2013-04-30 08:38:00,62.6,62.2,30.04,ESE,109,0.0,0.0,99,0.00,,,0.00,meteohub,2013-04-30 12:38:00,
2013-04-30 08:43:00,63.0,62.6,30.04,ESE,109,0.0,0.0,99,0.00,,,0.00,meteohub,2013-04-30 12:43:00,
2013-04-30 08:48:00,63.1,62.8,30.04,East,93,0.0,0.0,99,0.00,,,0.00,meteohub,2013-04-30 12:48:00,
2013-04-30 08:53:00,63.3,63.0,30.04,East,84,0.0,0.0,99,0.00,,,0.00,meteohub,2013-04-30 12:53:00,
2013-04-30 08:58:00,63.1,62.8,30.04,East,84,0.0,0.0,99,0.00,,,0.00,meteohub,2013-04-30 12:58:00,
2013-04-30 09:03:00,63.3,63.0,30.04,East,84,0.0,0.0,99,0.00,,,0.00,meteohub,2013-04-30 13:03:00,
2013-04-30 09:08:00,63.5,63.5,30.04,East,99,0.0,0.0,100,0.00,,,0.00,meteohub,2013-04-30 13:08:00,
2013-04-30 09:13:00,63.7,63.3,30.04,East,99,0.0,0.0,99,0.00,,,0.00,meteohub,2013-04-30 13:13:00,
2013-04-30 09:18:00,63.9,63.5,30.04,East,99,0.0,0.0,99,0.00,,,0.00,meteohub,2013-04-30 13:18:00,
2013-04-30 09:23:00,64.2,63.9,30.04,East,99,0.0,0.0,99,0.00,,,0.00,meteohub,2013-04-30 13:23:00,
2013-04-30 09:28:00,64.2,63.9,30.04,East,99,0.0,0.0,99,0.00,,,0.00,meteohub,2013-04-30 13:28:00,
2013-04-30 09:33:00,64.6,64.2,30.04,ESE,120,0.0,0.0,99,0.00,,,0.00,meteohub,2013-04-30 13:33:00,
2013-04-30 09:38:00,64.8,64.4,30.04,East,90,1.0,0.0,99,0.00,,,0.00,meteohub,2013-04-30 13:38:00,
2013-04-30 09:43:00,65.3,64.9,30.04,ENE,66,4.0,0.0,99,0.00,,,0.00,meteohub,2013-04-30 13:43:00,
2013-04-30 09:48:00,65.5,65.1,30.04,ESE,105,1.0,0.0,99,0.00,,,0.00,meteohub,2013-04-30 13:48:00,
2013-04-30 09:53:00,65.7,65.1,30.04,ENE,63,2.0,0.0,98,0.00,,,0.00,meteohub,2013-04-30 13:53:00,
2013-04-30 09:58:00,65.8,64.9,30.04,ENE,75,0.0,7.0,97,0.00,,,0.00,meteohub,2013-04-30 13:58:00,
2013-04-30 10:03:00,66.6,65.3,30.04,ESE,122,2.0,7.0,96,0.00,,,0.00,meteohub,2013-04-30 14:03:00,
2013-04-30 10:08:00,66.7,65.3,30.04,East,92,0.0,7.0,95,0.00,,,0.00,meteohub,2013-04-30 14:08:00,
2013-04-30 10:13:00,66.9,65.1,30.04,East,101,4.0,7.0,94,0.00,,,0.00,meteohub,2013-04-30 14:13:00,
2013-04-30 10:18:00,67.3,65.1,30.04,ESE,103,4.0,7.0,93,0.00,,,0.00,meteohub,2013-04-30 14:18:00,
2013-04-30 10:23:00,67.5,65.3,30.04,SE,126,0.0,7.0,93,0.00,,,0.00,meteohub,2013-04-30 14:23:00,
2013-04-30 10:28:00,67.8,65.5,30.05,SE,126,0.0,7.0,92,0.00,,,0.00,meteohub,2013-04-30 14:28:00,
2013-04-30 10:33:00,68.0,65.3,30.05,SE,126,0.0,7.0,91,0.00,,,0.00,meteohub,2013-04-30 14:33:00,
2013-04-30 10:38:00,68.2,65.5,30.05,SE,126,0.0,7.0,91,0.00,,,0.00,meteohub,2013-04-30 14:38:00,
2013-04-30 10:43:00,68.0,64.9,30.05,NE,55,5.0,5.0,90,0.00,,,0.00,meteohub,2013-04-30 14:43:00,
2013-04-30 10:48:00,67.6,64.2,30.04,East,81,3.0,5.0,89,0.00,,,0.00,meteohub,2013-04-30 14:48:00,
2013-04-30 10:53:00,68.0,64.9,30.04,ESE,116,0.0,5.0,90,0.00,,,0.00,meteohub,2013-04-30 14:53:00,
2013-04-30 10:58:00,68.2,64.8,30.04,SE,140,4.0,5.0,89,0.00,,,0.00,meteohub,2013-04-30 14:58:00,
2013-04-30 11:03:00,68.2,64.4,30.04,ENE,74,2.0,5.0,88,0.00,,,0.00,meteohub,2013-04-30 15:03:00,
2013-04-30 11:08:00,68.4,64.6,30.04,East,82,5.0,5.0,88,0.00,,,0.00,meteohub,2013-04-30 15:08:00,
2013-04-30 11:13:00,68.9,65.1,30.05,NE,49,5.0,5.0,88,0.00,,,0.00,meteohub,2013-04-30 15:13:00,
2013-04-30 11:18:00,69.3,65.3,30.05,NE,48,2.0,5.0,87,0.00,,,0.00,meteohub,2013-04-30 15:18:00,
2013-04-30 11:23:00,69.4,65.5,30.05,ENE,77,2.0,7.0,87,0.00,,,0.00,meteohub,2013-04-30 15:23:00,
2013-04-30 11:28:00,69.4,65.1,30.05,ENE,71,4.0,7.0,86,0.00,,,0.00,meteohub,2013-04-30 15:28:00,
2013-04-30 11:33:00,69.6,65.7,30.05,ESE,105,1.0,7.0,87,0.00,,,0.00,meteohub,2013-04-30 15:33:00,
2013-04-30 11:38:00,69.8,65.1,30.05,ENE,78,4.0,7.0,85,0.00,,,0.00,meteohub,2013-04-30 15:38:00,
2013-04-30 11:43:00,69.8,65.1,30.05,ESE,105,4.0,7.0,85,0.00,,,0.00,meteohub,2013-04-30 15:43:00,
2013-04-30 11:48:00,69.4,65.1,30.05,ESE,109,5.0,7.0,86,0.00,,,0.00,meteohub,2013-04-30 15:48:00,
2013-04-30 11:53:00,69.3,64.9,30.05,ESE,123,5.0,7.0,86,0.00,,,0.00,meteohub,2013-04-30 15:53:00,
2013-04-30 11:58:00,68.7,64.4,30.04,East,79,7.0,13.0,86,0.00,,,0.00,meteohub,2013-04-30 15:58:00,
2013-04-30 12:03:00,68.2,63.9,30.05,ENE,70,4.0,13.0,86,0.00,,,0.00,meteohub,2013-04-30 16:03:00,
2013-04-30 12:08:00,67.8,63.9,30.05,East,84,3.0,13.0,87,0.00,,,0.00,meteohub,2013-04-30 16:08:00,
2013-04-30 12:13:00,67.8,63.9,30.05,East,91,5.0,13.0,87,0.00,,,0.00,meteohub,2013-04-30 16:13:00,
2013-04-30 12:18:00,67.6,63.7,30.05,ESE,119,5.0,13.0,87,0.00,,,0.00,meteohub,2013-04-30 16:18:00,
2013-04-30 12:23:00,67.3,63.7,30.04,East,82,2.0,13.0,88,0.00,,,0.00,meteohub,2013-04-30 16:23:00,
2013-04-30 12:28:00,67.1,63.5,30.05,ESE,123,2.0,13.0,88,0.00,,,0.00,meteohub,2013-04-30 16:28:00,
2013-04-30 12:33:00,67.3,63.7,30.05,East,93,0.0,13.0,88,0.00,,,0.00,meteohub,2013-04-30 16:33:00,
2013-04-30 12:38:00,67.3,63.7,30.04,ENE,57,3.0,13.0,88,0.00,,,0.00,meteohub,2013-04-30 16:38:00,
2013-04-30 12:43:00,67.5,63.9,30.05,ESE,116,12.0,13.0,88,0.00,,,0.00,meteohub,2013-04-30 16:43:00,
2013-04-30 12:48:00,67.5,63.9,30.04,East,90,4.0,13.0,88,0.00,,,0.00,meteohub,2013-04-30 16:48:00,
2013-04-30 12:53:00,67.6,64.0,30.04,ESE,105,5.0,11.0,88,0.00,,,0.00,meteohub,2013-04-30 16:53:00,
2013-04-30 12:58:00,68.2,64.2,30.04,East,90,6.0,11.0,87,0.00,,,0.00,meteohub,2013-04-30 16:58:00,
2013-04-30 13:03:00,68.4,64.0,30.04,East,94,5.0,11.0,86,0.00,,,0.00,meteohub,2013-04-30 17:03:00,
2013-04-30 13:08:00,68.4,63.7,30.04,East,99,7.0,11.0,85,0.00,,,0.00,meteohub,2013-04-30 17:08:00,
2013-04-30 13:13:00,68.4,63.7,30.04,ENE,68,2.0,11.0,85,0.00,,,0.00,meteohub,2013-04-30 17:13:00,
2013-04-30 13:18:00,68.7,64.0,30.04,SE,137,8.0,11.0,85,0.00,,,0.00,meteohub,2013-04-30 17:18:00,
2013-04-30 13:23:00,68.9,63.9,30.03,ESE,102,5.0,11.0,84,0.00,,,0.00,meteohub,2013-04-30 17:23:00,
2013-04-30 13:28:00,69.1,64.0,30.03,SE,125,2.0,11.0,84,0.00,,,0.00,meteohub,2013-04-30 17:28:00,
2013-04-30 13:33:00,69.1,64.0,30.03,East,90,7.0,9.0,84,0.00,,,0.00,meteohub,2013-04-30 17:33:00,
2013-04-30 13:38:00,68.7,64.0,30.03,ENE,77,4.0,9.0,85,0.00,,,0.00,meteohub,2013-04-30 17:38:00,
2013-04-30 13:43:00,69.1,64.4,30.03,East,81,6.0,9.0,85,0.00,,,0.00,meteohub,2013-04-30 17:43:00,
2013-04-30 13:48:00,69.6,64.9,30.03,East,92,9.0,9.0,85,0.00,,,0.00,meteohub,2013-04-30 17:48:00,
2013-04-30 13:54:00,70.5,65.8,30.03,East,92,5.0,9.0,85,0.00,,,0.00,meteohub,2013-04-30 17:54:00,
2013-04-30 13:59:00,70.5,64.4,30.03,ENE,66,6.0,9.0,81,0.00,,,0.00,meteohub,2013-04-30 17:59:00,
2013-04-30 14:04:00,70.0,63.9,30.03,East,97,7.0,15.0,81,0.00,,,0.00,meteohub,2013-04-30 18:04:00,
2013-04-30 14:09:00,70.0,63.9,30.03,East,84,11.0,15.0,81,0.00,,,0.00,meteohub,2013-04-30 18:09:00,
2013-04-30 14:14:00,69.8,63.7,30.03,East,90,8.0,15.0,81,0.00,,,0.00,meteohub,2013-04-30 18:14:00,
2013-04-30 14:19:00,69.8,63.7,30.03,ENE,78,7.0,15.0,81,0.00,,,0.00,meteohub,2013-04-30 18:19:00,
2013-04-30 14:24:00,70.0,64.2,30.03,SE,142,0.0,15.0,82,0.00,,,0.00,meteohub,2013-04-30 18:24:00,
2013-04-30 14:29:00,70.0,63.5,30.02,East,88,4.0,13.0,80,0.00,,,0.00,meteohub,2013-04-30 18:29:00,
2013-04-30 14:34:00,70.0,63.5,30.02,East,93,6.0,13.0,80,0.00,,,0.00,meteohub,2013-04-30 18:34:00,
2013-04-30 14:39:00,70.2,63.7,30.02,East,91,12.0,13.0,80,0.00,,,0.00,meteohub,2013-04-30 18:39:00,
2013-04-30 14:44:00,70.3,63.5,30.02,East,88,10.0,13.0,79,0.00,,,0.00,meteohub,2013-04-30 18:44:00,
2013-04-30 14:49:00,70.5,63.7,30.02,East,86,5.0,12.0,79,0.00,,,0.00,meteohub,2013-04-30 18:49:00,
2013-04-30 14:54:00,70.9,63.7,30.02,ESE,119,6.0,12.0,78,0.00,,,0.00,meteohub,2013-04-30 18:54:00,
2013-04-30 14:59:00,71.2,64.4,30.02,East,99,6.0,12.0,79,0.00,,,0.00,meteohub,2013-04-30 18:59:00,
2013-04-30 15:04:00,71.1,63.9,30.02,ENE,69,6.0,12.0,78,0.00,,,0.00,meteohub,2013-04-30 19:04:00,
2013-04-30 15:09:00,70.9,63.7,30.02,ESE,102,6.0,12.0,78,0.00,,,0.00,meteohub,2013-04-30 19:09:00,
2013-04-30 15:14:00,70.3,63.1,30.02,East,90,5.0,12.0,78,0.00,,,0.00,meteohub,2013-04-30 19:14:00,
2013-04-30 15:19:00,70.3,63.5,30.02,East,84,3.0,12.0,79,0.00,,,0.00,meteohub,2013-04-30 19:19:00,
2013-04-30 15:24:00,70.3,63.5,30.02,ENE,60,4.0,12.0,79,0.00,,,0.00,meteohub,2013-04-30 19:24:00,
2013-04-30 15:29:00,70.2,63.3,30.02,ENE,67,6.0,11.0,79,0.00,,,0.00,meteohub,2013-04-30 19:29:00,
2013-04-30 15:34:00,70.2,63.3,30.01,NE,48,7.0,11.0,79,0.00,,,0.00,meteohub,2013-04-30 19:34:00,
2013-04-30 15:39:00,70.2,63.0,30.01,East,96,8.0,11.0,78,0.00,,,0.00,meteohub,2013-04-30 19:39:00,
2013-04-30 15:44:00,70.0,63.1,30.01,ENE,63,7.0,11.0,79,0.00,,,0.00,meteohub,2013-04-30 19:44:00,
2013-04-30 15:49:00,70.0,63.5,30.02,NE,52,3.0,12.0,80,0.00,,,0.00,meteohub,2013-04-30 19:49:00,
2013-04-30 15:54:00,69.8,63.3,30.02,East,82,2.0,12.0,80,0.00,,,0.00,meteohub,2013-04-30 19:54:00,
2013-04-30 15:59:00,69.6,63.1,30.02,ENE,74,0.0,12.0,80,0.00,,,0.00,meteohub,2013-04-30 19:59:00,
2013-04-30 16:04:00,69.6,63.1,30.02,East,101,4.0,12.0,80,0.00,,,0.00,meteohub,2013-04-30 20:04:00,
2013-04-30 16:09:00,69.6,62.4,30.02,SE,132,5.0,7.0,78,0.00,,,0.00,meteohub,2013-04-30 20:09:00,
2013-04-30 16:14:00,69.8,63.0,30.02,ENE,62,0.0,7.0,79,0.00,,,0.00,meteohub,2013-04-30 20:14:00,
2013-04-30 16:19:00,70.5,63.0,30.02,ESE,111,7.0,7.0,77,0.00,,,0.00,meteohub,2013-04-30 20:19:00,
2013-04-30 16:24:00,70.9,63.3,30.02,East,92,4.0,7.0,77,0.00,,,0.00,meteohub,2013-04-30 20:24:00,
2013-04-30 16:29:00,70.9,63.0,30.02,ENE,78,5.0,11.0,76,0.00,,,0.00,meteohub,2013-04-30 20:29:00,
2013-04-30 16:34:00,70.9,63.0,30.02,ENE,58,6.0,11.0,76,0.00,,,0.00,meteohub,2013-04-30 20:34:00,
2013-04-30 16:39:00,70.3,62.4,30.02,ENE,63,5.0,11.0,76,0.00,,,0.00,meteohub,2013-04-30 20:39:00,
2013-04-30 16:44:00,70.2,62.6,30.02,ESE,115,1.0,11.0,77,0.00,,,0.00,meteohub,2013-04-30 20:44:00,
2013-04-30 16:49:00,69.6,62.4,30.02,ENE,61,6.0,12.0,78,0.00,,,0.00,meteohub,2013-04-30 20:49:00,
2013-04-30 16:54:00,69.3,62.1,30.02,ENE,69,4.0,12.0,78,0.00,,,0.00,meteohub,2013-04-30 20:54:00,
2013-04-30 16:59:00,68.9,61.7,30.02,ENE,73,6.0,12.0,78,0.00,,,0.00,meteohub,2013-04-30 20:59:00,
2013-04-30 17:04:00,68.5,61.3,30.02,ENE,77,2.0,12.0,78,0.00,,,0.00,meteohub,2013-04-30 21:04:00,
2013-04-30 17:09:00,68.4,61.5,30.02,East,88,4.0,8.0,79,0.00,,,0.00,meteohub,2013-04-30 21:09:00,
2013-04-30 17:14:00,68.0,61.5,30.02,SE,134,5.0,8.0,80,0.00,,,0.00,meteohub,2013-04-30 21:14:00,
2013-04-30 17:19:00,67.8,61.7,30.02,ESE,114,2.0,8.0,81,0.00,,,0.00,meteohub,2013-04-30 21:19:00,
2013-04-30 17:24:00,67.8,61.3,30.02,ESE,111,4.0,8.0,80,0.00,,,0.00,meteohub,2013-04-30 21:24:00,
2013-04-30 17:29:00,67.8,61.7,30.02,ENE,74,5.0,8.0,81,0.00,,,0.00,meteohub,2013-04-30 21:29:00,
2013-04-30 17:34:00,68.0,61.9,30.02,ENE,78,2.0,8.0,81,0.00,,,0.00,meteohub,2013-04-30 21:34:00,
2013-04-30 17:39:00,68.0,61.9,30.03,NE,53,1.0,8.0,81,0.00,,,0.00,meteohub,2013-04-30 21:39:00,
2013-04-30 17:44:00,68.2,62.1,30.02,East,101,1.0,8.0,81,0.00,,,0.00,meteohub,2013-04-30 21:44:00,
2013-04-30 17:49:00,68.0,61.5,30.02,ENE,75,8.0,8.0,80,0.00,,,0.00,meteohub,2013-04-30 21:49:00,
2013-04-30 17:54:00,67.8,61.3,30.03,East,92,6.0,7.0,80,0.00,,,0.00,meteohub,2013-04-30 21:54:00,
2013-04-30 17:59:00,67.8,61.3,30.03,East,98,5.0,7.0,80,0.00,,,0.00,meteohub,2013-04-30 21:59:00,
2013-04-30 18:04:00,67.6,61.2,30.03,ENE,66,3.0,7.0,80,0.00,,,0.00,meteohub,2013-04-30 22:04:00,
2013-04-30 18:09:00,67.6,61.5,30.03,East,82,3.0,8.0,81,0.00,,,0.00,meteohub,2013-04-30 22:09:00,
2013-04-30 18:14:00,67.8,61.3,30.03,East,96,1.0,8.0,80,0.00,,,0.00,meteohub,2013-04-30 22:14:00,
2013-04-30 18:19:00,68.2,61.3,30.02,ENE,66,6.0,8.0,79,0.00,,,0.00,meteohub,2013-04-30 22:19:00,
2013-04-30 18:24:00,68.0,61.2,30.03,East,92,0.0,8.0,79,0.00,,,0.00,meteohub,2013-04-30 22:24:00,
2013-04-30 18:29:00,67.8,61.0,30.04,East,83,2.0,8.0,79,0.00,,,0.00,meteohub,2013-04-30 22:29:00,
2013-04-30 18:34:00,67.6,61.2,30.04,NE,41,0.0,8.0,80,0.00,,,0.00,meteohub,2013-04-30 22:34:00,
2013-04-30 18:39:00,67.5,61.2,30.04,East,83,2.0,8.0,80,0.00,,,0.00,meteohub,2013-04-30 22:39:00,
2013-04-30 18:44:00,67.5,61.3,30.04,ENE,73,0.0,6.0,81,0.00,,,0.00,meteohub,2013-04-30 22:44:00,
2013-04-30 18:49:00,67.5,61.3,30.04,East,84,0.0,6.0,81,0.00,,,0.00,meteohub,2013-04-30 22:49:00,
2013-04-30 18:54:00,67.3,61.5,30.04,East,84,0.0,6.0,82,0.00,,,0.00,meteohub,2013-04-30 22:54:00,
2013-04-30 18:59:00,67.1,61.3,30.04,East,84,0.0,6.0,82,0.00,,,0.00,meteohub,2013-04-30 22:59:00,
2013-04-30 19:04:00,66.9,61.5,30.04,East,84,0.0,6.0,83,0.00,,,0.00,meteohub,2013-04-30 23:04:00,
2013-04-30 19:09:00,66.9,61.9,30.04,East,84,0.0,6.0,84,0.00,,,0.00,meteohub,2013-04-30 23:09:00,
2013-04-30 19:14:00,66.9,61.9,30.05,East,84,0.0,1.0,84,0.00,,,0.00,meteohub,2013-04-30 23:14:00,
2013-04-30 19:19:00,66.9,62.6,30.05,East,84,0.0,1.0,86,0.00,,,0.00,meteohub,2013-04-30 23:19:00,
2013-04-30 19:24:00,66.7,62.1,30.05,East,84,0.0,1.0,85,0.00,,,0.00,meteohub,2013-04-30 23:24:00,
2013-04-30 19:29:00,66.7,62.4,30.05,East,84,0.0,1.0,86,0.00,,,0.00,meteohub,2013-04-30 23:29:00,
2013-04-30 19:34:00,66.6,62.6,30.05,East,84,0.0,0.0,87,0.00,,,0.00,meteohub,2013-04-30 23:34:00,
2013-04-30 19:39:00,66.4,62.4,30.05,East,84,0.0,0.0,87,0.00,,,0.00,meteohub,2013-04-30 23:39:00,
2013-04-30 19:44:00,66.2,62.6,30.06,East,84,0.0,0.0,88,0.00,,,0.00,meteohub,2013-04-30 23:44:00,
2013-04-30 19:49:00,66.0,62.6,30.05,East,84,0.0,0.0,89,0.00,,,0.00,meteohub,2013-04-30 23:49:00,
2013-04-30 19:54:00,65.8,62.4,30.05,East,84,0.0,0.0,89,0.00,,,0.00,meteohub,2013-04-30 23:54:00,
2013-04-30 19:59:00,65.7,62.2,30.05,East,84,0.0,0.0,89,0.00,,,0.00,meteohub,2013-04-30 23:59:00,
2013-04-30 20:04:00,65.3,62.1,30.05,East,84,0.0,0.0,89,0.00,,,0.00,meteohub,2013-05-01 00:04:00,
2013-04-30 20:09:00,64.9,61.9,30.06,East,84,0.0,0.0,90,0.00,,,0.00,meteohub,2013-05-01 00:09:00,
2013-04-30 20:14:00,64.9,61.9,30.06,East,84,0.0,0.0,90,0.00,,,0.00,meteohub,2013-05-01 00:14:00,
2013-04-30 20:19:00,64.8,61.7,30.06,East,84,0.0,0.0,90,0.00,,,0.00,meteohub,2013-05-01 00:19:00,
2013-04-30 20:24:00,64.6,61.5,30.06,East,84,0.0,0.0,90,0.00,,,0.00,meteohub,2013-05-01 00:24:00,
2013-04-30 20:29:00,64.6,61.5,30.06,East,84,0.0,0.0,90,0.00,,,0.00,meteohub,2013-05-01 00:29:00,
2013-04-30 20:34:00,64.4,61.7,30.07,East,84,0.0,0.0,91,0.00,,,0.00,meteohub,2013-05-01 00:34:00,
2013-04-30 20:39:00,64.4,61.7,30.06,East,84,0.0,0.0,91,0.00,,,0.00,meteohub,2013-05-01 00:39:00,
2013-04-30 20:44:00,64.2,61.5,30.07,East,84,0.0,0.0,91,0.00,,,0.00,meteohub,2013-05-01 00:44:00,
2013-04-30 20:49:00,64.2,61.5,30.07,East,84,0.0,0.0,91,0.00,,,0.00,meteohub,2013-05-01 00:49:00,
2013-04-30 20:54:00,64.2,61.9,30.07,East,84,0.0,0.0,92,0.00,,,0.00,meteohub,2013-05-01 00:54:00,
2013-04-30 20:59:00,64.2,61.9,30.07,East,84,0.0,0.0,92,0.00,,,0.00,meteohub,2013-05-01 00:59:00,
2013-04-30 21:04:00,64.2,62.2,30.08,East,84,0.0,0.0,93,0.00,,,0.01,meteohub,2013-05-01 01:04:00,
2013-04-30 21:09:00,64.2,62.2,30.08,East,84,0.0,0.0,93,0.01,,,0.01,meteohub,2013-05-01 01:09:00,
2013-04-30 21:14:00,64.2,62.2,30.08,East,84,0.0,0.0,93,0.01,,,0.01,meteohub,2013-05-01 01:14:00,
2013-04-30 21:19:00,64.4,62.6,30.08,East,84,0.0,0.0,94,0.01,,,0.01,meteohub,2013-05-01 01:19:00,
2013-04-30 21:24:00,64.4,62.6,30.08,East,84,0.0,0.0,94,0.01,,,0.01,meteohub,2013-05-01 01:24:00,
2013-04-30 21:29:00,64.4,63.0,30.08,East,84,0.0,0.0,95,0.01,,,0.01,meteohub,2013-05-01 01:29:00,
2013-04-30 21:34:00,64.4,63.0,30.08,East,84,0.0,0.0,95,0.01,,,0.01,meteohub,2013-05-01 01:34:00,
2013-04-30 21:39:00,64.4,63.0,30.08,East,84,0.0,0.0,95,0.01,,,0.01,meteohub,2013-05-01 01:39:00,
2013-04-30 21:44:00,64.4,63.0,30.09,East,84,0.0,0.0,95,0.01,,,0.01,meteohub,2013-05-01 01:44:00,
2013-04-30 21:49:00,64.6,63.1,30.09,East,84,0.0,0.0,95,0.01,,,0.01,meteohub,2013-05-01 01:49:00,
2013-04-30 21:54:00,64.6,63.5,30.09,East,84,0.0,0.0,96,0.00,,,0.01,meteohub,2013-05-01 01:54:00,
2013-04-30 21:59:00,64.6,63.5,30.09,East,84,0.0,0.0,96,0.00,,,0.01,meteohub,2013-05-01 01:59:00,
2013-04-30 22:04:00,64.6,63.5,30.09,East,84,0.0,0.0,96,0.00,,,0.01,meteohub,2013-05-01 02:04:00,
2013-04-30 22:09:00,64.6,63.5,30.09,East,84,0.0,0.0,96,0.00,,,0.01,meteohub,2013-05-01 02:09:00,
2013-04-30 22:14:00,64.6,63.5,30.09,East,84,0.0,0.0,96,0.00,,,0.01,meteohub,2013-05-01 02:14:00,
2013-04-30 22:19:00,64.6,63.5,30.09,East,84,0.0,0.0,96,0.00,,,0.01,meteohub,2013-05-01 02:19:00,
2013-04-30 22:24:00,64.4,63.3,30.09,SE,133,1.0,0.0,96,0.00,,,0.01,meteohub,2013-05-01 02:24:00,
2013-04-30 22:29:00,64.2,63.1,30.09,East,82,0.0,0.0,96,0.00,,,0.01,meteohub,2013-05-01 02:29:00,
2013-04-30 22:34:00,63.9,62.4,30.09,East,82,0.0,4.0,95,0.00,,,0.01,meteohub,2013-05-01 02:34:00,
2013-04-30 22:39:00,63.7,62.2,30.09,East,82,0.0,4.0,95,0.00,,,0.01,meteohub,2013-05-01 02:39:00,
2013-04-30 22:44:00,63.3,61.9,30.09,East,82,0.0,0.0,95,0.00,,,0.01,meteohub,2013-05-01 02:44:00,
2013-04-30 22:49:00,63.1,61.7,30.09,East,82,0.0,0.0,95,0.00,,,0.01,meteohub,2013-05-01 02:49:00,
2013-04-30 22:54:00,63.1,61.7,30.09,East,82,0.0,0.0,95,0.00,,,0.01,meteohub,2013-05-01 02:54:00,
2013-04-30 22:59:00,63.0,61.5,30.09,East,82,0.0,0.0,95,0.00,,,0.01,meteohub,2013-05-01 02:59:00,
2013-04-30 23:04:00,62.8,61.3,30.09,East,82,0.0,0.0,95,0.00,,,0.01,meteohub,2013-05-01 03:04:00,
2013-04-30 23:09:00,62.8,61.3,30.09,East,82,0.0,0.0,95,0.00,,,0.01,meteohub,2013-05-01 03:09:00,
2013-04-30 23:14:00,62.4,61.0,30.09,East,82,0.0,0.0,95,0.00,,,0.01,meteohub,2013-05-01 03:14:00,
2013-04-30 23:19:00,62.2,60.8,30.09,East,82,0.0,0.0,95,0.00,,,0.01,meteohub,2013-05-01 03:19:00,
2013-04-30 23:24:00,62.2,60.8,30.09,East,82,0.0,0.0,95,0.00,,,0.01,meteohub,2013-05-01 03:24:00,
2013-04-30 23:29:00,62.2,60.8,30.09,East,82,0.0,0.0,95,0.00,,,0.01,meteohub,2013-05-01 03:29:00,
2013-04-30 23:34:00,62.1,60.6,30.09,East,82,0.0,0.0,95,0.00,,,0.01,meteohub,2013-05-01 03:34:00,
2013-04-30 23:39:00,61.9,60.4,30.10,East,82,0.0,0.0,95,0.00,,,0.01,meteohub,2013-05-01 03:39:00,
2013-04-30 23:44:00,61.9,60.4,30.10,East,82,0.0,0.0,95,0.00,,,0.01,meteohub,2013-05-01 03:44:00,
2013-04-30 23:49:00,61.5,60.1,30.10,East,82,0.0,0.0,95,0.00,,,0.01,meteohub,2013-05-01 03:49:00,
2013-04-30 23:54:00,61.3,59.5,30.10,East,82,0.0,0.0,94,0.00,,,0.01,meteohub,2013-05-01 03:54:00,
2013-04-30 23:59:00,61.3,59.5,30.10,East,82,0.0,0.0,94,0.00,,,0.01,meteohub,2013-05-01 03:59:00,